Pagrindinis puslapis
METAR-TAF:

METAR-TAF

Oro uostai :

Kuparuk, Aliaska, Jungtinės Amerikos Valstijos

platuma: 70-19N, ilguma: 149-35W, Aukštis: 20 m

Dabartinis oras

Ataskaita buvo paskelbta 6 valandos ir 48 minutes, ne 03:45 UTC
Vėjas 8 kt iš Vakarų
Temperatūra -24°C
Drėgmė 83%
Slėgis 1021 hPa
Matomumas: 8.0 km
Su prošvaistėmis ne aukštis 2800 ft
rūkana

METAR: PAKU 260345Z 27008KT 5SM R24/P6000FT BR BKN028 M24/M26 A3016

Laikas: 01:33 (10:33 UTC)


TAF: trūkstamas

Orai ataskaitas ir orų prognozės (METAR, TAF).

turimą stotys yra geltonos ir raudonos taškus žemėlapyje.

Perkelti pele per norėdami pamatyti stoties vardą.

Tada spustelėkite, norėdami matyti oro stebėjimo ir prognozės.

Norėdami pakeisti žemėlapį: spustelėkite ant žalios mygtukų su juodo kryžiaus žemyn,; žalią mygtuką su brūkšneliu, jei norite nutolinti; arba žalių rodyklių gretimoms žemėlapius.


METAR-TAF: